Airfield :
LOGIN :

Register | Disclaimer

   EN    FR    IT 

 










Legend :    VFR   Marginal VFR   IFR   Intensive IFR   Very Intensive IFR
Visi :
Ceiling :
>= 8 km
>= 3000ft
5 to 8 km
1000 to 3000 ft
1500m to 5 km
500 to 1000 ft
800 to 1500m
200 to 500 ft
< 800m
< 200 ft
Symbols :   Thunderstorms  Fog  Heavy snow  Heavy precipitations  Wind > 20 kt
SIGMETs :     Misc.  Thunderstorms  Icing  Turbulence  Mountain Waves  Volcanic Ashes







- Airport Elevation : 1585 ft
- IATA code : SIR


LSGS - Sion

CURRENT METAR :
  • 151950Z AUTO VRB01KT CAVOK 21/14 Q1023

EXPIRED METARs :
  • 151920Z AUTO VRB02KT CAVOK 22/13 Q1023
  • 151850Z AUTO VRB01KT CAVOK 23/13 Q1022
  • 151820Z AUTO 27005KT 210V320 CAVOK 24/12 Q1022
  • 151750Z 29009KT 260V320 9999 FEW120 26/12 Q1022
  • 151720Z 29009KT 240V340 9999 FEW120 26/12 Q1021

TAF AMD TAF LSGS
Valid from the 15 at 15:00 until the 16 at 00:00 UTC


151503Z 1515/1524 26013KT 9999 FEW100
BECMG 1517/1519 VRB03KT CAVOK
No reported NOTAMs for that airfield.



MET'MAP, your aeronautical weather chart ! - Copyright ORBIFLY December 2007 - Disclaimer

ORBIFLY MET'MAP TEAM :

Programming & Development : Alexandra Zaïnal
Concept & Development : Baudouin d'Aumeries
Co-Development & Prog : Marc-Olivier Méhu
Technical & hardware support : Manuel Goepfert

Contact : metmap@orbifly.com




SOURCES & CREDITS :

   NOAA